Palpala, Argentina
Current Conditions -  °F | °C
As of 5:00 PM on Tuesday 21 Oct 2014 (Local Time) from SASJ Reporting Station
Broken Clouds Broken Clouds  
Wind Chill: 82°   Ceiling: 20000
Heat Index: 82°   Visibility: 6mi
Dew Point: 57°   Wind: 7mph
Humidity: 42%   Direction: 110°ESE
Pressure: 30.03"   Gusts: NA
Location:  24.25°S, 65.2°W
Report Text: SASJ 212000Z 11006KT 9999 FEW035 BKN20028/14 Q1017
Loading
Personal Weather Stations






























Interactive Weather Map
Tropical Storm Tracking
New forecast layout! Learn more

10-Day Weather Forecast

Advertisements
Track Severe Weather on mobile